Time;durP1;ratioP1;P1;durP2;ratioP2;P2;SDS_P1;SDS_P2;PMS_P1;PMS_P2;Temp;Humidity;BMP_temperature;BMP_pressure;BME280_temperature;BME280_humidity;BME280_pressure;Samples;Min_cycle;Max_cycle;Signal;HPM_P1;HPM_P2
2024/01/01 00:02:11;;;;;;;61.47;38.47;;;;;;;;;;5067735;28;20260;-50
2024/01/01 00:04:37;;;;;;;49.20;31.87;;;;;;;;;;5066872;28;20172;-55
2024/01/01 00:07:03;;;;;;;60.40;38.63;;;;;;;;;;5068268;28;20172;-53
2024/01/01 00:09:29;;;;;;;54.17;33.50;;;;;;;;;;5069045;28;20254;-54
2024/01/01 00:11:55;;;;;;;55.93;35.73;;;;;;;;;;5062393;28;20271;-55
2024/01/01 00:14:21;;;;;;;52.97;35.03;;;;;;;;;;5060171;28;20350;-53
2024/01/01 00:16:48;;;;;;;56.73;34.87;;;;;;;;;;5060433;28;20179;-53
2024/01/01 00:19:14;;;;;;;52.63;32.47;;;;;;;;;;5065943;28;20200;-54
2024/01/01 00:21:40;;;;;;;55.43;37.57;;;;;;;;;;5063684;28;20196;-53
2024/01/01 00:24:07;;;;;;;53.80;33.03;;;;;;;;;;5062172;28;20479;-52
2024/01/01 00:26:33;;;;;;;52.67;32.97;;;;;;;;;;5062395;28;20608;-52
2024/01/01 00:28:59;;;;;;;45.63;30.47;;;;;;;;;;5062781;28;20173;-52
2024/01/01 00:31:25;;;;;;;49.13;30.43;;;;;;;;;;5062841;28;20180;-52
2024/01/01 00:33:51;;;;;;;41.33;27.63;;;;;;;;;;5062118;28;20244;-51
2024/01/01 00:36:17;;;;;;;38.20;26.40;;;;;;;;;;5064732;28;20377;-53
2024/01/01 00:38:44;;;;;;;42.97;26.87;;;;;;;;;;5065687;28;20212;-54
2024/01/01 00:41:17;;;;;;;43.03;26.73;;;;;;;;;;5066747;28;20184;-52
2024/01/01 00:43:43;;;;;;;47.33;26.90;;;;;;;;;;5067722;28;20407;-53
2024/01/01 00:46:10;;;;;;;48.63;27.43;;;;;;;;;;5069357;28;20517;-52
2024/01/01 00:48:36;;;;;;;52.80;27.73;;;;;;;;;;5070660;28;20211;-54
2024/01/01 00:51:02;;;;;;;34.53;23.23;;;;;;;;;;5068624;28;20441;-52
2024/01/01 00:53:28;;;;;;;45.77;26.60;;;;;;;;;;5070229;28;20216;-49
2024/01/01 00:55:54;;;;;;;38.77;24.07;;;;;;;;;;5066287;28;20442;-52
2024/01/01 00:58:20;;;;;;;40.90;24.00;;;;;;;;;;5065230;28;20328;-54
2024/01/01 01:00:46;;;;;;;37.33;21.23;;;;;;;;;;5065043;28;20524;-52
2024/01/01 01:03:12;;;;;;;25.70;16.90;;;;;;;;;;5063548;28;20173;-53
2024/01/01 01:05:39;;;;;;;22.03;15.30;;;;;;;;;;5065017;28;20173;-52
2024/01/01 01:08:05;;;;;;;24.23;13.77;;;;;;;;;;5064618;28;20255;-55
2024/01/01 01:10:31;;;;;;;24.37;15.07;;;;;;;;;;5068186;28;20188;-52
2024/01/01 01:12:57;;;;;;;22.63;14.07;;;;;;;;;;5066179;28;20344;-55
2024/01/01 01:15:25;;;;;;;21.50;13.97;;;;;;;;;;5066624;28;20746;-51
2024/01/01 01:17:51;;;;;;;22.30;13.83;;;;;;;;;;5067119;28;20173;-49
2024/01/01 01:20:17;;;;;;;25.70;15.00;;;;;;;;;;5065946;28;20200;-55
2024/01/01 01:22:43;;;;;;;24.67;16.87;;;;;;;;;;5066413;28;20176;-53
2024/01/01 01:25:10;;;;;;;26.07;14.40;;;;;;;;;;5063735;28;20246;-55
2024/01/01 01:27:36;;;;;;;24.10;14.43;;;;;;;;;;5064597;28;20177;-53
2024/01/01 01:30:02;;;;;;;22.73;14.37;;;;;;;;;;5062081;28;20416;-49
2024/01/01 01:32:28;;;;;;;23.40;14.20;;;;;;;;;;5064836;28;20176;-52
2024/01/01 01:34:54;;;;;;;22.13;12.93;;;;;;;;;;5065884;28;20179;-52
2024/01/01 01:37:20;;;;;;;17.97;11.77;;;;;;;;;;5064267;28;20181;-53
2024/01/01 01:39:46;;;;;;;17.87;12.03;;;;;;;;;;5064422;28;20204;-53
2024/01/01 01:42:12;;;;;;;17.53;10.97;;;;;;;;;;5064377;28;20181;-54
2024/01/01 01:44:38;;;;;;;21.27;11.57;;;;;;;;;;5066255;28;20177;-52
2024/01/01 01:47:04;;;;;;;18.00;10.57;;;;;;;;;;5064825;28;20395;-52
2024/01/01 01:49:31;;;;;;;19.13;9.37;;;;;;;;;;5064303;28;20467;-53
2024/01/01 01:51:57;;;;;;;14.80;9.10;;;;;;;;;;5065514;28;20173;-50
2024/01/01 01:54:24;;;;;;;11.93;8.47;;;;;;;;;;5064169;28;20664;-50
2024/01/01 01:56:50;;;;;;;15.47;8.80;;;;;;;;;;5065882;28;20177;-54
2024/01/01 01:59:16;;;;;;;12.33;7.33;;;;;;;;;;5065949;28;20821;-53
2024/01/01 02:01:43;;;;;;;13.87;7.73;;;;;;;;;;5063959;28;20179;-49
2024/01/01 02:04:09;;;;;;;15.10;8.57;;;;;;;;;;5063331;28;20169;-52
2024/01/01 02:06:35;;;;;;;15.77;8.37;;;;;;;;;;5063790;28;20237;-55
2024/01/01 02:09:01;;;;;;;15.97;7.97;;;;;;;;;;5065324;28;20185;-55
2024/01/01 02:11:27;;;;;;;13.53;7.43;;;;;;;;;;5064922;28;20229;-55
2024/01/01 02:13:53;;;;;;;11.63;6.33;;;;;;;;;;5065879;28;20192;-52
2024/01/01 02:16:20;;;;;;;12.30;5.97;;;;;;;;;;5066177;28;20199;-52
2024/01/01 02:18:46;;;;;;;10.37;5.97;;;;;;;;;;5066504;28;20203;-51
2024/01/01 02:21:12;;;;;;;13.70;5.53;;;;;;;;;;5065958;28;20165;-56
2024/01/01 02:23:38;;;;;;;12.17;5.80;;;;;;;;;;5069097;28;20177;-55
2024/01/01 02:26:07;;;;;;;16.90;5.90;;;;;;;;;;5068866;28;20325;-56
2024/01/01 02:28:33;;;;;;;10.63;5.50;;;;;;;;;;5069327;28;20517;-53
2024/01/01 02:30:59;;;;;;;10.03;5.17;;;;;;;;;;5070892;28;20198;-54
2024/01/01 02:33:25;;;;;;;7.30;4.70;;;;;;;;;;5070187;28;20165;-51
2024/01/01 02:35:51;;;;;;;10.43;5.53;;;;;;;;;;5067946;28;20171;-52
2024/01/01 02:38:17;;;;;;;11.90;5.00;;;;;;;;;;5069816;28;20179;-54
2024/01/01 02:40:43;;;;;;;9.07;4.70;;;;;;;;;;5068523;28;20191;-52
2024/01/01 02:43:09;;;;;;;17.07;5.03;;;;;;;;;;5068475;28;20455;-52
2024/01/01 02:45:35;;;;;;;14.90;5.67;;;;;;;;;;5069064;28;20575;-55
2024/01/01 02:48:01;;;;;;;15.77;6.53;;;;;;;;;;5067327;28;20173;-54
2024/01/01 02:50:29;;;;;;;10.77;5.60;;;;;;;;;;5067279;28;20176;-55
2024/01/01 02:52:55;;;;;;;10.50;5.77;;;;;;;;;;5066561;28;20206;-52
2024/01/01 02:55:20;;;;;;;8.70;5.40;;;;;;;;;;5066502;28;20561;-52
2024/01/01 02:57:47;;;;;;;11.73;5.43;;;;;;;;;;5067133;28;20227;-55
2024/01/01 03:00:14;;;;;;;8.97;5.20;;;;;;;;;;5065381;28;20214;-53
2024/01/01 03:02:44;;;;;;;11.07;5.63;;;;;;;;;;5066267;28;20196;-53
2024/01/01 03:05:11;;;;;;;10.57;5.57;;;;;;;;;;5065080;28;20173;-55
2024/01/01 03:07:37;;;;;;;9.37;5.80;;;;;;;;;;5067364;28;20472;-50
2024/01/01 03:10:04;;;;;;;13.87;5.83;;;;;;;;;;5068667;28;20553;-59
2024/01/01 03:12:32;;;;;;;12.83;6.80;;;;;;;;;;5069469;28;20638;-52
2024/01/01 03:14:58;;;;;;;16.00;6.97;;;;;;;;;;5068706;28;20238;-54
2024/01/01 03:17:24;;;;;;;14.53;6.97;;;;;;;;;;5070255;28;20168;-53
2024/01/01 03:19:50;;;;;;;13.07;6.53;;;;;;;;;;5069712;28;20470;-54
2024/01/01 03:22:16;;;;;;;11.87;6.30;;;;;;;;;;5069790;28;20378;-56
2024/01/01 03:24:42;;;;;;;9.07;5.80;;;;;;;;;;5068751;28;20344;-53
2024/01/01 03:27:08;;;;;;;10.87;5.73;;;;;;;;;;5067160;28;20255;-54
2024/01/01 03:29:34;;;;;;;9.53;6.87;;;;;;;;;;5068145;28;20200;-52
2024/01/01 03:32:00;;;;;;;10.57;6.80;;;;;;;;;;5066697;28;20243;-50
2024/01/01 03:34:26;;;;;;;13.00;7.33;;;;;;;;;;5065142;28;20168;-54
2024/01/01 03:36:52;;;;;;;15.43;7.43;;;;;;;;;;5066439;28;20172;-51
2024/01/01 03:39:18;;;;;;;9.67;6.43;;;;;;;;;;5066077;28;20700;-55
2024/01/01 03:41:44;;;;;;;10.33;6.53;;;;;;;;;;5066574;28;20173;-54
2024/01/01 03:44:10;;;;;;;14.23;6.80;;;;;;;;;;5066798;28;20169;-53
2024/01/01 03:46:36;;;;;;;12.67;7.27;;;;;;;;;;5066525;28;20168;-54
2024/01/01 03:49:02;;;;;;;13.03;6.83;;;;;;;;;;5065923;28;20207;-51
2024/01/01 03:51:28;;;;;;;13.00;7.63;;;;;;;;;;5067378;28;20179;-55
2024/01/01 03:53:54;;;;;;;15.63;7.53;;;;;;;;;;5070625;28;20177;-56
2024/01/01 03:56:20;;;;;;;13.03;8.63;;;;;;;;;;5069312;28;20629;-54
2024/01/01 03:58:47;;;;;;;9.97;7.37;;;;;;;;;;5070376;28;20230;-54
2024/01/01 04:01:13;;;;;;;14.93;7.23;;;;;;;;;;5071120;28;20207;-54
2024/01/01 04:03:40;;;;;;;10.97;7.60;;;;;;;;;;5072002;28;20651;-52
2024/01/01 04:09:10;;;;;;;13.13;7.67;;;;;;;;;;5072912;28;20315;-51
2024/01/01 04:11:36;;;;;;;14.03;7.97;;;;;;;;;;5073108;28;20180;-52
2024/01/01 04:14:02;;;;;;;12.57;7.23;;;;;;;;;;5073750;28;20169;-50
2024/01/01 04:16:29;;;;;;;14.73;8.23;;;;;;;;;;5074530;28;20214;-48
2024/01/01 04:18:55;;;;;;;11.27;7.00;;;;;;;;;;5072555;28;20208;-52
2024/01/01 04:21:20;;;;;;;14.03;8.17;;;;;;;;;;5074505;28;20173;-55
2024/01/01 04:23:48;;;;;;;17.83;8.67;;;;;;;;;;5074304;28;20172;-56
2024/01/01 04:26:14;;;;;;;14.43;8.83;;;;;;;;;;5072359;28;20180;-52
2024/01/01 04:28:40;;;;;;;15.30;8.67;;;;;;;;;;5074171;28;20531;-50
2024/01/01 04:31:05;;;;;;;12.30;7.30;;;;;;;;;;5073500;28;20567;-53
2024/01/01 04:33:31;;;;;;;12.07;7.57;;;;;;;;;;5072326;28;20180;-52
2024/01/01 04:35:57;;;;;;;14.00;7.43;;;;;;;;;;5074271;28;20183;-55
2024/01/01 04:38:23;;;;;;;12.10;7.40;;;;;;;;;;5072258;28;20181;-54
2024/01/01 04:40:50;;;;;;;12.53;8.40;;;;;;;;;;5072170;28;20233;-52
2024/01/01 04:43:16;;;;;;;12.60;8.80;;;;;;;;;;5070889;28;20180;-50
2024/01/01 04:45:42;;;;;;;14.40;9.33;;;;;;;;;;5072397;28;20165;-53
2024/01/01 04:48:08;;;;;;;13.43;8.27;;;;;;;;;;5073117;28;20590;-53
2024/01/01 04:50:35;;;;;;;17.97;8.00;;;;;;;;;;5070915;28;20486;-52
2024/01/01 04:53:01;;;;;;;16.63;7.83;;;;;;;;;;5070279;28;20188;-54
2024/01/01 04:55:27;;;;;;;15.50;8.50;;;;;;;;;;5071538;28;20487;-54
2024/01/01 04:57:53;;;;;;;15.60;9.20;;;;;;;;;;5070211;28;20243;-54
2024/01/01 05:00:19;;;;;;;12.53;8.07;;;;;;;;;;5070701;28;20204;-54
2024/01/01 05:02:45;;;;;;;9.73;7.10;;;;;;;;;;5070963;28;20199;-55
2024/01/01 05:05:11;;;;;;;12.90;8.00;;;;;;;;;;5070676;28;20161;-56
2024/01/01 05:07:37;;;;;;;16.93;8.07;;;;;;;;;;5070641;28;20177;-56
2024/01/01 05:10:06;;;;;;;10.53;7.07;;;;;;;;;;5072374;28;20507;-54
2024/01/01 05:12:32;;;;;;;10.70;7.13;;;;;;;;;;5071639;28;20246;-51
2024/01/01 05:14:59;;;;;;;12.63;7.60;;;;;;;;;;5072261;28;20180;-49
2024/01/01 05:17:25;;;;;;;16.93;7.60;;;;;;;;;;5071131;28;20172;-52
2024/01/01 05:19:51;;;;;;;15.60;7.07;;;;;;;;;;5071911;28;20219;-51
2024/01/01 05:22:18;;;;;;;12.07;6.43;;;;;;;;;;5070801;28;20169;-52
2024/01/01 05:24:46;;;;;;;11.10;7.00;;;;;;;;;;5070216;28;20173;-52
2024/01/01 05:27:12;;;;;;;12.43;6.77;;;;;;;;;;5070308;28;20172;-55
2024/01/01 05:29:41;;;;;;;13.27;6.87;;;;;;;;;;5070753;28;20287;-50
2024/01/01 05:32:07;;;;;;;11.63;6.07;;;;;;;;;;5071977;28;20173;-54
2024/01/01 05:34:33;;;;;;;7.23;5.57;;;;;;;;;;5071153;28;20183;-52
2024/01/01 05:37:00;;;;;;;11.90;6.40;;;;;;;;;;5071621;28;20299;-52
2024/01/01 05:39:26;;;;;;;10.57;6.53;;;;;;;;;;5072433;28;20503;-49
2024/01/01 05:41:51;;;;;;;9.10;6.13;;;;;;;;;;5072691;28;20176;-54
2024/01/01 05:44:17;;;;;;;16.00;5.40;;;;;;;;;;5071728;28;20629;-52
2024/01/01 05:46:43;;;;;;;11.47;5.30;;;;;;;;;;5072648;28;20613;-53
2024/01/01 05:49:09;;;;;;;8.53;5.70;;;;;;;;;;5073414;28;20397;-50
2024/01/01 05:51:35;;;;;;;10.07;5.40;;;;;;;;;;5073445;28;20208;-51
2024/01/01 05:54:01;;;;;;;8.63;5.40;;;;;;;;;;5072543;28;20211;-52
2024/01/01 05:56:27;;;;;;;8.67;4.67;;;;;;;;;;5073550;28;20219;-51
2024/01/01 05:58:53;;;;;;;8.53;5.40;;;;;;;;;;5072298;28;20235;-52
2024/01/01 06:01:19;;;;;;;11.03;5.00;;;;;;;;;;5073250;28;20222;-48
2024/01/01 06:03:46;;;;;;;9.80;5.37;;;;;;;;;;5073136;28;20183;-52
2024/01/01 06:06:12;;;;;;;10.70;5.83;;;;;;;;;;5072458;28;20173;-52
2024/01/01 06:08:38;;;;;;;9.83;4.90;;;;;;;;;;5072006;28;20214;-53
2024/01/01 06:11:04;;;;;;;12.07;5.07;;;;;;;;;;5072748;28;20485;-54
2024/01/01 06:13:30;;;;;;;8.30;4.10;;;;;;;;;;5072034;28;20192;-51
2024/01/01 06:15:56;;;;;;;10.73;5.13;;;;;;;;;;5072119;28;20173;-50
2024/01/01 06:18:25;;;;;;;10.33;4.60;;;;;;;;;;5072971;28;20176;-52
2024/01/01 06:20:51;;;;;;;6.00;3.73;;;;;;;;;;5072478;28;20172;-50
2024/01/01 06:23:17;;;;;;;8.27;3.70;;;;;;;;;;5071786;28;20172;-49
2024/01/01 06:25:43;;;;;;;10.43;4.00;;;;;;;;;;5072010;28;20283;-51
2024/01/01 06:28:09;;;;;;;6.50;3.87;;;;;;;;;;5072012;28;20255;-53
2024/01/01 06:30:34;;;;;;;7.63;3.67;;;;;;;;;;5071167;28;20200;-51
2024/01/01 06:33:02;;;;;;;7.27;3.80;;;;;;;;;;5070379;28;20184;-49
2024/01/01 06:35:30;;;;;;;7.60;4.17;;;;;;;;;;5070635;28;20269;-48
2024/01/01 06:37:57;;;;;;;6.60;3.77;;;;;;;;;;5069461;28;20275;-55
2024/01/01 06:40:23;;;;;;;9.03;4.00;;;;;;;;;;5070770;28;20299;-55
2024/01/01 06:42:49;;;;;;;12.80;3.73;;;;;;;;;;5070771;28;20591;-54
2024/01/01 06:45:15;;;;;;;5.87;3.53;;;;;;;;;;5070761;28;20161;-51
2024/01/01 06:47:41;;;;;;;6.50;3.80;;;;;;;;;;5069940;28;20168;-51
2024/01/01 06:50:07;;;;;;;8.33;3.43;;;;;;;;;;5069655;28;20180;-52
2024/01/01 06:52:33;;;;;;;7.63;3.60;;;;;;;;;;5069849;28;20174;-53
2024/01/01 06:54:59;;;;;;;7.20;3.70;;;;;;;;;;5069550;28;20184;-54
2024/01/01 06:57:25;;;;;;;8.47;3.80;;;;;;;;;;5070172;28;20259;-55
2024/01/01 06:59:52;;;;;;;6.97;2.97;;;;;;;;;;5069806;28;20269;-53
2024/01/01 07:02:18;;;;;;;7.70;3.67;;;;;;;;;;5069405;28;20583;-55
2024/01/01 07:04:44;;;;;;;6.53;3.93;;;;;;;;;;5069030;28;20534;-51
2024/01/01 07:07:11;;;;;;;7.80;3.23;;;;;;;;;;5070372;28;20172;-51
2024/01/01 07:09:38;;;;;;;7.93;4.30;;;;;;;;;;5068789;28;20553;-52
2024/01/01 07:12:20;;;;;;;9.17;3.23;;;;;;;;;;5071143;28;20474;-51
2024/01/01 07:14:47;;;;;;;9.70;3.50;;;;;;;;;;5070108;28;20184;-54
2024/01/01 07:17:13;;;;;;;8.60;3.80;;;;;;;;;;5071214;28;20172;-53
2024/01/01 07:19:39;;;;;;;6.53;3.20;;;;;;;;;;5071603;28;20500;-55
2024/01/01 07:22:05;;;;;;;5.73;3.30;;;;;;;;;;5070531;28;20529;-54
2024/01/01 07:24:32;;;;;;;8.47;3.70;;;;;;;;;;5070338;28;20176;-53
2024/01/01 07:26:58;;;;;;;6.77;3.60;;;;;;;;;;5070990;28;20254;-55
2024/01/01 07:29:24;;;;;;;10.50;3.47;;;;;;;;;;5073975;28;20245;-53
2024/01/01 07:31:50;;;;;;;6.57;3.43;;;;;;;;;;5075894;28;20505;-53
2024/01/01 07:34:18;;;;;;;9.57;3.77;;;;;;;;;;5072761;28;20187;-54
2024/01/01 07:36:45;;;;;;;8.37;3.47;;;;;;;;;;5072403;28;20436;-49
2024/01/01 07:39:12;;;;;;;10.00;3.17;;;;;;;;;;5072773;28;20208;-55
2024/01/01 07:41:38;;;;;;;9.10;4.00;;;;;;;;;;5074029;28;20180;-49
2024/01/01 07:44:05;;;;;;;8.80;3.60;;;;;;;;;;5074014;28;20172;-51
2024/01/01 07:46:31;;;;;;;11.90;4.03;;;;;;;;;;5074517;28;20173;-54
2024/01/01 07:49:00;;;;;;;5.53;3.27;;;;;;;;;;5072730;28;20225;-56
2024/01/01 07:51:26;;;;;;;9.20;3.70;;;;;;;;;;5072289;28;20165;-53
2024/01/01 07:53:52;;;;;;;6.70;3.60;;;;;;;;;;5071273;28;20243;-49
2024/01/01 07:56:18;;;;;;;7.33;3.87;;;;;;;;;;5071090;28;20196;-50
2024/01/01 07:58:45;;;;;;;8.50;3.57;;;;;;;;;;5071333;28;20224;-54
2024/01/01 08:01:11;;;;;;;8.33;3.77;;;;;;;;;;5070285;28;20230;-52
2024/01/01 08:03:38;;;;;;;7.70;3.77;;;;;;;;;;5072665;28;20241;-51
2024/01/01 08:06:04;;;;;;;12.10;3.57;;;;;;;;;;5074434;28;20391;-52
2024/01/01 08:08:31;;;;;;;8.30;3.10;;;;;;;;;;5073782;28;20560;-53
2024/01/01 08:10:57;;;;;;;9.00;3.90;;;;;;;;;;5073222;28;20521;-52
2024/01/01 08:13:24;;;;;;;10.60;3.63;;;;;;;;;;5073099;28;20177;-53
2024/01/01 08:15:50;;;;;;;6.27;3.27;;;;;;;;;;5073210;28;20179;-54
2024/01/01 08:18:16;;;;;;;6.27;3.10;;;;;;;;;;5072924;28;20263;-52
2024/01/01 08:20:43;;;;;;;6.63;3.07;;;;;;;;;;5073354;28;20257;-52
2024/01/01 08:23:09;;;;;;;6.53;3.33;;;;;;;;;;5073762;28;20195;-53
2024/01/01 08:25:35;;;;;;;11.47;3.50;;;;;;;;;;5075077;28;20419;-53
2024/01/01 08:28:01;;;;;;;6.63;3.33;;;;;;;;;;5074054;28;20165;-54
2024/01/01 08:30:27;;;;;;;5.80;2.93;;;;;;;;;;5072989;28;20626;-51
2024/01/01 08:32:53;;;;;;;6.97;3.43;;;;;;;;;;5073474;28;20552;-55
2024/01/01 08:35:20;;;;;;;8.67;3.43;;;;;;;;;;5072730;28;20179;-52
2024/01/01 08:37:48;;;;;;;3.80;2.47;;;;;;;;;;5072207;28;20172;-53
2024/01/01 08:40:14;;;;;;;7.53;2.60;;;;;;;;;;5071741;28;20208;-53
2024/01/01 08:42:40;;;;;;;9.90;2.93;;;;;;;;;;5073819;28;20179;-53
2024/01/01 08:45:06;;;;;;;6.77;2.60;;;;;;;;;;5070973;28;20173;-55
2024/01/01 08:47:32;;;;;;;9.57;3.40;;;;;;;;;;5072428;28;20204;-51
2024/01/01 08:49:59;;;;;;;8.37;2.70;;;;;;;;;;5071774;28;20247;-53
2024/01/01 08:52:25;;;;;;;3.73;2.30;;;;;;;;;;5072898;28;20184;-50
2024/01/01 08:54:51;;;;;;;5.20;2.53;;;;;;;;;;5072697;28;20176;-48
2024/01/01 08:57:17;;;;;;;7.90;2.60;;;;;;;;;;5074160;28;20207;-53
2024/01/01 08:59:42;;;;;;;7.70;3.03;;;;;;;;;;5072270;28;20216;-52
2024/01/01 09:02:09;;;;;;;7.93;2.70;;;;;;;;;;5073838;28;20476;-48
2024/01/01 09:04:35;;;;;;;10.73;2.93;;;;;;;;;;5072636;28;20196;-51
2024/01/01 09:07:02;;;;;;;9.17;3.63;;;;;;;;;;5073833;28;20267;-48
2024/01/01 09:09:28;;;;;;;9.00;3.27;;;;;;;;;;5072470;28;20196;-50
2024/01/01 09:11:54;;;;;;;7.57;2.70;;;;;;;;;;5071870;28;20209;-51
2024/01/01 09:14:20;;;;;;;6.67;2.73;;;;;;;;;;5072687;28;20436;-51
2024/01/01 09:16:47;;;;;;;8.30;3.17;;;;;;;;;;5072519;28;20246;-52
2024/01/01 09:19:15;;;;;;;5.37;2.63;;;;;;;;;;5070717;28;20522;-51
2024/01/01 09:21:41;;;;;;;10.20;3.50;;;;;;;;;;5071326;28;20481;-53
2024/01/01 09:24:09;;;;;;;9.03;3.33;;;;;;;;;;5070120;28;20189;-53
2024/01/01 09:26:35;;;;;;;15.70;2.87;;;;;;;;;;5068890;28;20442;-52
2024/01/01 09:29:01;;;;;;;7.27;3.23;;;;;;;;;;5069499;28;20550;-53
2024/01/01 09:31:27;;;;;;;8.93;3.33;;;;;;;;;;5068925;28;20173;-51
2024/01/01 09:33:55;;;;;;;11.27;3.37;;;;;;;;;;5068243;28;20168;-49
2024/01/01 09:36:21;;;;;;;5.90;3.17;;;;;;;;;;5068897;28;20667;-52
2024/01/01 09:38:47;;;;;;;9.13;3.47;;;;;;;;;;5070218;28;20432;-53
2024/01/01 09:41:13;;;;;;;9.03;3.40;;;;;;;;;;5070409;28;20176;-54
2024/01/01 09:43:40;;;;;;;9.67;3.70;;;;;;;;;;5070374;28;20173;-55
2024/01/01 09:46:06;;;;;;;15.33;3.47;;;;;;;;;;5069623;28;20236;-52
2024/01/01 09:48:32;;;;;;;8.43;3.67;;;;;;;;;;5070657;28;20556;-52
2024/01/01 09:50:58;;;;;;;7.73;3.47;;;;;;;;;;5068348;28;20211;-52
2024/01/01 09:53:24;;;;;;;7.53;2.70;;;;;;;;;;5070127;28;20237;-53
2024/01/01 09:55:54;;;;;;;9.67;3.70;;;;;;;;;;5069836;28;20315;-51
2024/01/01 09:58:20;;;;;;;7.60;3.80;;;;;;;;;;5069551;28;20543;-50
2024/01/01 10:00:48;;;;;;;13.13;2.97;;;;;;;;;;5069709;28;20467;-52
2024/01/01 10:03:14;;;;;;;9.47;3.07;;;;;;;;;;5068151;28;20173;-49
2024/01/01 10:05:41;;;;;;;11.10;3.27;;;;;;;;;;5067231;28;20261;-53
2024/01/01 10:08:11;;;;;;;8.20;3.20;;;;;;;;;;5068180;28;20169;-56
2024/01/01 10:10:38;;;;;;;11.80;3.30;;;;;;;;;;5068120;28;20176;-53
2024/01/01 10:13:08;;;;;;;13.30;4.10;;;;;;;;;;5068366;28;20173;-53
2024/01/01 10:15:34;;;;;;;11.70;4.23;;;;;;;;;;5069752;28;20181;-55
2024/01/01 10:18:08;;;;;;;8.37;3.20;;;;;;;;;;5067935;28;20390;-54
2024/01/01 10:20:34;;;;;;;13.23;3.83;;;;;;;;;;5068525;28;20595;-55
2024/01/01 10:23:00;;;;;;;12.13;4.03;;;;;;;;;;5067846;28;20406;-55
2024/01/01 10:25:26;;;;;;;13.50;3.70;;;;;;;;;;5069053;28;20169;-53
2024/01/01 10:27:56;;;;;;;10.80;2.83;;;;;;;;;;5067327;28;20241;-52
2024/01/01 10:30:22;;;;;;;12.10;2.87;;;;;;;;;;5067655;28;20173;-53
2024/01/01 10:32:49;;;;;;;10.67;3.67;;;;;;;;;;5066221;28;20184;-50
2024/01/01 10:35:17;;;;;;;7.33;2.80;;;;;;;;;;5066876;28;20172;-53
2024/01/01 10:37:43;;;;;;;11.47;2.83;;;;;;;;;;5065371;28;20165;-55
2024/01/01 10:40:14;;;;;;;9.53;2.93;;;;;;;;;;5064643;28;20219;-52
2024/01/01 10:42:40;;;;;;;12.30;3.03;;;;;;;;;;5066390;28;20173;-52
2024/01/01 10:45:06;;;;;;;12.93;4.03;;;;;;;;;;5066421;28;20173;-52
2024/01/01 10:47:33;;;;;;;9.97;3.00;;;;;;;;;;5068539;28;20616;-51
2024/01/01 10:50:17;;;;;;;8.80;2.70;;;;;;;;;;5067624;28;20230;-55
2024/01/01 10:53:01;;;;;;;7.50;3.07;;;;;;;;;;5069630;28;20165;-49
2024/01/01 10:55:46;;;;;;;8.13;2.83;;;;;;;;;;5067236;28;20189;-52
2024/01/01 10:58:19;;;;;;;8.60;3.40;;;;;;;;;;5067468;28;20240;-52
2024/01/01 11:01:02;;;;;;;10.30;3.13;;;;;;;;;;5068689;28;20290;-53
2024/01/01 11:03:28;;;;;;;9.20;2.40;;;;;;;;;;5068259;28;20506;-53
2024/01/01 11:05:54;;;;;;;5.10;2.17;;;;;;;;;;5069473;28;20172;-53
2024/01/01 11:08:27;;;;;;;10.73;2.50;;;;;;;;;;5069052;28;20168;-51
2024/01/01 11:10:53;;;;;;;8.43;2.90;;;;;;;;;;5068254;28;20183;-54
2024/01/01 11:13:28;;;;;;;5.57;2.40;;;;;;;;;;5067087;28;20355;-51
2024/01/01 11:16:01;;;;;;;4.33;2.00;;;;;;;;;;5067509;28;20455;-52
2024/01/01 11:18:34;;;;;;;5.43;2.13;;;;;;;;;;5072636;28;20164;-52
2024/01/01 11:21:18;;;;;;;11.47;2.33;;;;;;;;;;5072918;28;20176;-55
2024/01/01 11:23:45;;;;;;;8.13;2.40;;;;;;;;;;5074130;28;20566;-52
2024/01/01 11:26:23;;;;;;;10.50;3.13;;;;;;;;;;5072984;28;20271;-52
2024/01/01 11:28:52;;;;;;;8.43;2.20;;;;;;;;;;5073420;28;20171;-54
2024/01/01 11:31:18;;;;;;;8.43;2.80;;;;;;;;;;5073448;28;20169;-56
2024/01/01 11:33:44;;;;;;;6.33;2.70;;;;;;;;;;5072318;28;20221;-52
2024/01/01 11:36:10;;;;;;;11.77;3.23;;;;;;;;;;5072997;28;20184;-53
2024/01/01 11:38:37;;;;;;;10.20;2.47;;;;;;;;;;5072186;28;20180;-54
2024/01/01 11:41:03;;;;;;;9.07;2.63;;;;;;;;;;5070728;28;20180;-53
2024/01/01 11:43:29;;;;;;;10.67;2.70;;;;;;;;;;5070878;28;20180;-49
2024/01/01 11:45:55;;;;;;;7.37;2.60;;;;;;;;;;5070828;28;20252;-56
2024/01/01 11:48:23;;;;;;;9.83;2.30;;;;;;;;;;5071473;28;20597;-52
2024/01/01 11:50:50;;;;;;;7.30;2.27;;;;;;;;;;5072436;28;20186;-53
2024/01/01 11:53:16;;;;;;;11.87;3.00;;;;;;;;;;5071809;28;20457;-54
2024/01/01 11:55:42;;;;;;;7.60;3.43;;;;;;;;;;5070931;28;20177;-54
2024/01/01 11:58:09;;;;;;;9.30;3.17;;;;;;;;;;5071375;28;20235;-55
2024/01/01 12:00:36;;;;;;;9.77;2.60;;;;;;;;;;5071743;28;20292;-55
2024/01/01 12:03:04;;;;;;;6.77;2.57;;;;;;;;;;5071473;28;20250;-55
2024/01/01 12:05:30;;;;;;;6.33;2.30;;;;;;;;;;5071107;28;20179;-54
2024/01/01 12:07:57;;;;;;;7.57;2.20;;;;;;;;;;5071815;28;20275;-53
2024/01/01 12:10:27;;;;;;;7.47;2.43;;;;;;;;;;5071785;28;20249;-53
2024/01/01 12:13:00;;;;;;;9.67;2.60;;;;;;;;;;5070183;28;20183;-53
2024/01/01 12:15:30;;;;;;;8.53;1.97;;;;;;;;;;5073109;28;20244;-54
2024/01/01 12:17:56;;;;;;;10.17;2.13;;;;;;;;;;5072475;28;20185;-51
2024/01/01 12:20:25;;;;;;;11.13;2.90;;;;;;;;;;5073861;28;20240;-55
2024/01/01 12:22:53;;;;;;;10.50;2.40;;;;;;;;;;5073384;28;20626;-51
2024/01/01 12:25:20;;;;;;;7.20;2.93;;;;;;;;;;5073606;28;20650;-50
2024/01/01 12:28:05;;;;;;;4.27;1.93;;;;;;;;;;5073336;28;20703;-53
2024/01/01 12:30:32;;;;;;;6.83;2.33;;;;;;;;;;5073387;28;20184;-50
2024/01/01 12:32:58;;;;;;;9.30;2.40;;;;;;;;;;5072974;28;20183;-55
2024/01/01 12:35:24;;;;;;;7.43;2.20;;;;;;;;;;5073434;28;20540;-53
2024/01/01 12:37:51;;;;;;;8.27;2.47;;;;;;;;;;5072001;28;20199;-52
2024/01/01 12:40:17;;;;;;;7.47;2.50;;;;;;;;;;5072271;28;20211;-54
2024/01/01 12:42:43;;;;;;;10.47;2.03;;;;;;;;;;5071822;28;20250;-55
2024/01/01 12:45:12;;;;;;;10.37;2.17;;;;;;;;;;5073348;28;20172;-54
2024/01/01 12:47:38;;;;;;;6.80;1.93;;;;;;;;;;5072902;28;20164;-54
2024/01/01 12:50:04;;;;;;;6.10;2.27;;;;;;;;;;5073314;28;20464;-52
2024/01/01 12:52:30;;;;;;;9.50;1.87;;;;;;;;;;5074034;28;20168;-49
2024/01/01 12:54:56;;;;;;;7.27;1.80;;;;;;;;;;5072714;28;20181;-55
2024/01/01 12:57:22;;;;;;;14.67;2.23;;;;;;;;;;5072932;28;20627;-52
2024/01/01 12:59:48;;;;;;;5.00;2.30;;;;;;;;;;5073202;28;20294;-53
2024/01/01 13:02:14;;;;;;;11.67;2.47;;;;;;;;;;5073046;28;20255;-55
2024/01/01 13:04:40;;;;;;;5.80;1.97;;;;;;;;;;5073461;28;20254;-54
2024/01/01 13:07:06;;;;;;;6.07;1.80;;;;;;;;;;5074421;28;20177;-52
2024/01/01 13:09:32;;;;;;;7.90;2.23;;;;;;;;;;5075351;28;20263;-53
2024/01/01 13:11:58;;;;;;;5.23;1.70;;;;;;;;;;5074474;28;20180;-55
2024/01/01 13:14:24;;;;;;;11.30;2.53;;;;;;;;;;5073782;28;20204;-51
2024/01/01 13:16:50;;;;;;;7.43;1.50;;;;;;;;;;5073891;28;20164;-49
2024/01/01 13:19:16;;;;;;;5.77;2.10;;;;;;;;;;5067673;28;20483;-51
2024/01/01 13:21:42;;;;;;;6.23;1.80;;;;;;;;;;5068582;28;20176;-53
2024/01/01 13:24:08;;;;;;;6.33;1.67;;;;;;;;;;5067629;28;20505;-52
2024/01/01 13:26:35;;;;;;;4.90;1.50;;;;;;;;;;5066782;28;20354;-55
2024/01/01 13:29:03;;;;;;;4.33;1.90;;;;;;;;;;5065489;28;20295;-52
2024/01/01 13:31:29;;;;;;;4.73;1.53;;;;;;;;;;5066563;28;20212;-52
2024/01/01 13:33:55;;;;;;;8.37;1.83;;;;;;;;;;5067364;28;20235;-54
2024/01/01 13:36:21;;;;;;;3.77;1.70;;;;;;;;;;5066392;28;20351;-48
2024/01/01 13:38:47;;;;;;;4.77;1.80;;;;;;;;;;5064919;28;20191;-50
2024/01/01 13:41:13;;;;;;;7.13;1.90;;;;;;;;;;5064520;28;20444;-54
2024/01/01 13:43:39;;;;;;;3.20;1.30;;;;;;;;;;5065776;28;20216;-54
2024/01/01 13:46:05;;;;;;;6.87;2.30;;;;;;;;;;5064234;28;20259;-53
2024/01/01 13:48:31;;;;;;;6.83;2.10;;;;;;;;;;5065043;28;20263;-52
2024/01/01 13:50:57;;;;;;;5.10;3.03;;;;;;;;;;5063106;28;20493;-53
2024/01/01 13:53:25;;;;;;;7.13;2.03;;;;;;;;;;5063268;28;20259;-54
2024/01/01 13:55:51;;;;;;;7.77;2.10;;;;;;;;;;5063925;28;20183;-55
2024/01/01 13:58:17;;;;;;;5.63;1.47;;;;;;;;;;5064475;28;20255;-55
2024/01/01 14:00:44;;;;;;;7.53;1.90;;;;;;;;;;5064480;28;20584;-50
2024/01/01 14:03:14;;;;;;;5.17;1.50;;;;;;;;;;5065002;28;20216;-55
2024/01/01 14:05:41;;;;;;;4.93;1.57;;;;;;;;;;5069732;28;20161;-53
2024/01/01 14:08:07;;;;;;;6.07;1.90;;;;;;;;;;5069866;28;20172;-51
2024/01/01 14:10:33;;;;;;;5.53;2.07;;;;;;;;;;5068306;28;20192;-52
2024/01/01 14:12:59;;;;;;;4.57;1.77;;;;;;;;;;5070240;28;20184;-52
2024/01/01 14:15:26;;;;;;;3.67;1.50;;;;;;;;;;5068628;28;20176;-52
2024/01/01 14:17:52;;;;;;;7.13;1.73;;;;;;;;;;5067967;28;20200;-52
2024/01/01 14:20:20;;;;;;;7.23;1.70;;;;;;;;;;5068387;28;20219;-52
2024/01/01 14:22:46;;;;;;;4.40;1.83;;;;;;;;;;5068194;28;20175;-54
2024/01/01 14:25:12;;;;;;;5.50;2.00;;;;;;;;;;5067106;28;20200;-50
2024/01/01 14:27:41;;;;;;;3.97;1.03;;;;;;;;;;5068843;28;20668;-55
2024/01/01 14:30:09;;;;;;;1.57;0.80;;;;;;;;;;5069965;28;20435;-53
2024/01/01 14:32:35;;;;;;;2.17;0.70;;;;;;;;;;5069207;28;20191;-54
2024/01/01 14:35:01;;;;;;;2.93;1.20;;;;;;;;;;5069935;28;20500;-53
2024/01/01 14:37:27;;;;;;;3.67;0.87;;;;;;;;;;5068927;28;20184;-54